4XIGR LLBG-LLHA
Flight info
| Callsign | 4XIGR |
|---|---|
| Flight time | 0h 26m |
| Altitude | 2500 |
| Route | VFR LLBBG TO LLHA |
| Aircraft | DA62/L-V/N |
Departure
| Time | 2026-04-24 10:50 |
|---|---|
| Airport | Ben Gurion International Airport (LLBG) |
Arrival
| Time | 2026-04-24 11:17 |
|---|---|
| Airport | Uri Michaeli Haifa International Airport (LLHA) |
| Time | Latitude | Longitude | Altitude | Speed | Heading |
|---|---|---|---|---|---|
| 2026-04-24 10:16 | 31.99701 | 34.89163 | 124 ft | 0 kts | 110° |
| 2026-04-24 10:36 | 31.99686 | 34.89214 | 122 ft | 11 kts | 110° |
| 2026-04-24 10:37 | 31.99656 | 34.89307 | 123 ft | 13 kts | 111° |
| 2026-04-24 10:37 | 31.99679 | 34.89367 | 124 ft | 8 kts | 6° |
| 2026-04-24 10:37 | 31.99734 | 34.89384 | 124 ft | 10 kts | 22° |
| 2026-04-24 10:37 | 31.99771 | 34.89383 | 124 ft | 8 kts | 315° |
| 2026-04-24 10:38 | 31.99823 | 34.89293 | 123 ft | 19 kts | 303° |
| 2026-04-24 10:38 | 31.99908 | 34.89147 | 125 ft | 22 kts | 305° |
| 2026-04-24 10:38 | 31.99986 | 34.89014 | 124 ft | 15 kts | 303° |
| 2026-04-24 10:38 | 31.99991 | 34.89006 | 125 ft | 0 kts | 302° |
| 2026-04-24 10:40 | 31.99992 | 34.89002 | 123 ft | 6 kts | 303° |
| 2026-04-24 10:40 | 32.00025 | 34.88943 | 127 ft | 9 kts | 303° |
| 2026-04-24 10:40 | 32.00074 | 34.88851 | 127 ft | 20 kts | 302° |
| 2026-04-24 10:41 | 32.00153 | 34.88739 | 126 ft | 15 kts | 329° |
| 2026-04-24 10:41 | 32.00178 | 34.88723 | 124 ft | 0 kts | 331° |
| 2026-04-24 10:41 | 32.00182 | 34.88722 | 124 ft | 0 kts | 356° |
| 2026-04-24 10:41 | 32.00211 | 34.88756 | 124 ft | 10 kts | 30° |
| 2026-04-24 10:42 | 32.00236 | 34.88771 | 128 ft | 0 kts | 26° |
| 2026-04-24 10:42 | 32.00278 | 34.88797 | 129 ft | 13 kts | 30° |
| 2026-04-24 10:43 | 32.00395 | 34.88874 | 127 ft | 20 kts | 29° |
| 2026-04-24 10:43 | 32.00502 | 34.88946 | 124 ft | 15 kts | 30° |
| 2026-04-24 10:43 | 32.00601 | 34.89009 | 125 ft | 18 kts | 27° |
| 2026-04-24 10:43 | 32.00698 | 34.89070 | 122 ft | 13 kts | 28° |
| 2026-04-24 10:44 | 32.00766 | 34.89114 | 124 ft | 9 kts | 29° |
| 2026-04-24 10:44 | 32.00826 | 34.89154 | 124 ft | 13 kts | 30° |
| 2026-04-24 10:44 | 32.00927 | 34.89216 | 125 ft | 16 kts | 26° |
| 2026-04-24 10:44 | 32.01022 | 34.89279 | 124 ft | 20 kts | 31° |
| 2026-04-24 10:45 | 32.01174 | 34.89379 | 125 ft | 25 kts | 30° |
| 2026-04-24 10:45 | 32.01299 | 34.89466 | 122 ft | 17 kts | 32° |
| 2026-04-24 10:45 | 32.01385 | 34.89531 | 125 ft | 12 kts | 30° |
| 2026-04-24 10:45 | 32.01453 | 34.89562 | 125 ft | 9 kts | 17° |
| 2026-04-24 10:46 | 32.01526 | 34.89598 | 125 ft | 16 kts | 28° |
| 2026-04-24 10:46 | 32.01617 | 34.89661 | 124 ft | 13 kts | 32° |
| 2026-04-24 10:46 | 32.01664 | 34.89692 | 123 ft | 0 kts | 27° |
| 2026-04-24 10:48 | 32.01666 | 34.89694 | 123 ft | 4 kts | 27° |
| 2026-04-24 10:48 | 32.01759 | 34.89752 | 126 ft | 15 kts | 28° |
| 2026-04-24 10:48 | 32.01784 | 34.89764 | 127 ft | 6 kts | 6° |
| 2026-04-24 10:49 | 32.01833 | 34.89683 | 126 ft | 24 kts | 268° |
| 2026-04-24 10:49 | 32.01818 | 34.89583 | 124 ft | 6 kts | 257° |
| 2026-04-24 10:49 | 32.01798 | 34.89463 | 126 ft | 41 kts | 259° |
| 2026-04-24 10:49 | 32.01707 | 34.88899 | 127 ft | 94 kts | 259° |
| 2026-04-24 10:50 | 32.01571 | 34.88035 | 233 ft | 118 kts | 262° |
| 2026-04-24 10:50 | 32.01361 | 34.87100 | 622 ft | 114 kts | 256° |
| 2026-04-24 10:50 | 32.01080 | 34.86149 | 777 ft | 133 kts | 259° |
| 2026-04-24 10:50 | 32.00772 | 34.85059 | 897 ft | 145 kts | 256° |
| 2026-04-24 10:51 | 32.00448 | 34.83897 | 1045 ft | 151 kts | 255° |
| 2026-04-24 10:51 | 32.00115 | 34.82693 | 1335 ft | 148 kts | 256° |
| 2026-04-24 10:51 | 31.99812 | 34.81633 | 1939 ft | 130 kts | 256° |
| 2026-04-24 10:51 | 31.99507 | 34.80564 | 1993 ft | 145 kts | 255° |
| 2026-04-24 10:52 | 31.99174 | 34.79362 | 2005 ft | 162 kts | 254° |
| 2026-04-24 10:52 | 31.98820 | 34.78068 | 2006 ft | 170 kts | 254° |
| 2026-04-24 10:52 | 31.98469 | 34.76714 | 2003 ft | 177 kts | 262° |
| 2026-04-24 10:52 | 31.98604 | 34.75282 | 1997 ft | 174 kts | 287° |
| 2026-04-24 10:53 | 31.98929 | 34.73931 | 2006 ft | 175 kts | 287° |
| 2026-04-24 10:53 | 31.99271 | 34.72555 | 2005 ft | 174 kts | 288° |
| 2026-04-24 10:53 | 31.99603 | 34.71193 | 2002 ft | 173 kts | 288° |
| 2026-04-24 10:53 | 32.00230 | 34.70023 | 2008 ft | 166 kts | 320° |
| 2026-04-24 10:54 | 32.01104 | 34.69235 | 2000 ft | 155 kts | 323° |
| 2026-04-24 10:54 | 32.02060 | 34.68783 | 1992 ft | 150 kts | 3° |
| 2026-04-24 10:54 | 32.02945 | 34.69374 | 2001 ft | 152 kts | 52° |
| 2026-04-24 10:54 | 32.03453 | 34.70459 | 1993 ft | 151 kts | 55° |
| 2026-04-24 10:55 | 32.04173 | 34.71334 | 1998 ft | 149 kts | 36° |
| 2026-04-24 10:55 | 32.04993 | 34.72078 | 1999 ft | 148 kts | 36° |
| 2026-04-24 10:55 | 32.05834 | 34.72812 | 2003 ft | 150 kts | 34° |
| 2026-04-24 10:55 | 32.06396 | 34.73301 | 1995 ft | 150 kts | 34° |
| 2026-04-24 10:56 | 32.07232 | 34.74029 | 1999 ft | 148 kts | 33° |
| 2026-04-24 10:56 | 32.08060 | 34.74750 | 1996 ft | 148 kts | 34° |
| 2026-04-24 10:56 | 32.08888 | 34.75470 | 2001 ft | 148 kts | 34° |
| 2026-04-24 10:56 | 32.09709 | 34.76187 | 1997 ft | 147 kts | 33° |
| 2026-04-24 10:57 | 32.10526 | 34.76898 | 2003 ft | 149 kts | 34° |
| 2026-04-24 10:57 | 32.11364 | 34.77628 | 2005 ft | 150 kts | 35° |
| 2026-04-24 10:57 | 32.12209 | 34.78364 | 2000 ft | 151 kts | 35° |
| 2026-04-24 10:57 | 32.13057 | 34.79104 | 2003 ft | 152 kts | 35° |
| 2026-04-24 10:58 | 32.13912 | 34.79849 | 1994 ft | 154 kts | 34° |
| 2026-04-24 10:58 | 32.14770 | 34.80598 | 2004 ft | 154 kts | 34° |
| 2026-04-24 10:58 | 32.15634 | 34.81352 | 1994 ft | 154 kts | 33° |
| 2026-04-24 10:58 | 32.16495 | 34.82097 | 2004 ft | 155 kts | 34° |
| 2026-04-24 10:59 | 32.17364 | 34.82864 | 2010 ft | 157 kts | 35° |
| 2026-04-24 10:59 | 32.18237 | 34.83630 | 2016 ft | 156 kts | 33° |
| 2026-04-24 10:59 | 32.19118 | 34.84392 | 1999 ft | 156 kts | 35° |
| 2026-04-24 10:59 | 32.20005 | 34.85168 | 1999 ft | 160 kts | 34° |
| 2026-04-24 11:00 | 32.20889 | 34.85941 | 2018 ft | 157 kts | 32° |
| 2026-04-24 11:00 | 32.21790 | 34.86728 | 2003 ft | 165 kts | 34° |
| 2026-04-24 11:00 | 32.22722 | 34.87542 | 1995 ft | 167 kts | 34° |
| 2026-04-24 11:00 | 32.23638 | 34.88350 | 2001 ft | 163 kts | 33° |
| 2026-04-24 11:01 | 32.24544 | 34.89135 | 1997 ft | 162 kts | 31° |
| 2026-04-24 11:01 | 32.25440 | 34.89922 | 2020 ft | 159 kts | 34° |
| 2026-04-24 11:01 | 32.26342 | 34.90710 | 1993 ft | 164 kts | 33° |
| 2026-04-24 11:01 | 32.27264 | 34.91486 | 2021 ft | 163 kts | 26° |
| 2026-04-24 11:02 | 32.28352 | 34.91858 | 2019 ft | 162 kts | 11° |
| 2026-04-24 11:02 | 32.29437 | 34.92169 | 2008 ft | 159 kts | 12° |
| 2026-04-24 11:02 | 32.30474 | 34.92530 | 2002 ft | 154 kts | 14° |
| 2026-04-24 11:02 | 32.31499 | 34.92899 | 2013 ft | 157 kts | 13° |
| 2026-04-24 11:03 | 32.32565 | 34.93277 | 2010 ft | 159 kts | 14° |
| 2026-04-24 11:03 | 32.33637 | 34.93678 | 1987 ft | 163 kts | 14° |
| 2026-04-24 11:03 | 32.34707 | 34.94058 | 1998 ft | 158 kts | 13° |
| 2026-04-24 11:03 | 32.35729 | 34.94436 | 2009 ft | 152 kts | 14° |
| 2026-04-24 11:04 | 32.36744 | 34.94802 | 1998 ft | 156 kts | 14° |
| 2026-04-24 11:04 | 32.37767 | 34.95176 | 2008 ft | 152 kts | 14° |
| 2026-04-24 11:04 | 32.38796 | 34.95544 | 2001 ft | 159 kts | 13° |
| 2026-04-24 11:04 | 32.39847 | 34.95923 | 1986 ft | 157 kts | 14° |
| 2026-04-24 11:05 | 32.40894 | 34.96311 | 1971 ft | 162 kts | 14° |
| 2026-04-24 11:05 | 32.41957 | 34.96700 | 1988 ft | 160 kts | 13° |
| 2026-04-24 11:05 | 32.42981 | 34.97069 | 2015 ft | 152 kts | 15° |
| 2026-04-24 11:05 | 32.44009 | 34.97447 | 1996 ft | 156 kts | 14° |
| 2026-04-24 11:06 | 32.45026 | 34.97808 | 2025 ft | 150 kts | 14° |
| 2026-04-24 11:06 | 32.46036 | 34.98177 | 1997 ft | 150 kts | 15° |
| 2026-04-24 11:06 | 32.47033 | 34.98556 | 2015 ft | 153 kts | 15° |
| 2026-04-24 11:06 | 32.48058 | 34.98920 | 2014 ft | 156 kts | 15° |
| 2026-04-24 11:07 | 32.50112 | 34.99661 | 1923 ft | 154 kts | 14° |
| 2026-04-24 11:07 | 32.51107 | 35.00038 | 1989 ft | 150 kts | 14° |
| 2026-04-24 11:07 | 32.52139 | 35.00398 | 1992 ft | 161 kts | 15° |
| 2026-04-24 11:08 | 32.53200 | 35.00789 | 1980 ft | 158 kts | 14° |
| 2026-04-24 11:08 | 32.54247 | 35.01173 | 2004 ft | 157 kts | 13° |
| 2026-04-24 11:08 | 32.55316 | 35.01562 | 1984 ft | 161 kts | 14° |
| 2026-04-24 11:08 | 32.56370 | 35.01948 | 1992 ft | 157 kts | 13° |
| 2026-04-24 11:09 | 32.57415 | 35.02331 | 1986 ft | 157 kts | 13° |
| 2026-04-24 11:09 | 32.58435 | 35.02703 | 1982 ft | 154 kts | 14° |
| 2026-04-24 11:09 | 32.59462 | 35.03074 | 1989 ft | 153 kts | 11° |
| 2026-04-24 11:09 | 32.60488 | 35.03452 | 1988 ft | 155 kts | 15° |
| 2026-04-24 11:10 | 32.61512 | 35.03830 | 1986 ft | 153 kts | 13° |
| 2026-04-24 11:10 | 32.62527 | 35.04198 | 1984 ft | 152 kts | 14° |
| 2026-04-24 11:10 | 32.63532 | 35.04567 | 1983 ft | 150 kts | 13° |
| 2026-04-24 11:10 | 32.64514 | 35.04926 | 1983 ft | 146 kts | 13° |
| 2026-04-24 11:11 | 32.65429 | 35.05257 | 1993 ft | 149 kts | 15° |
| 2026-04-24 11:11 | 32.66338 | 35.05591 | 1989 ft | 148 kts | 12° |
| 2026-04-24 11:11 | 32.67315 | 35.05949 | 1994 ft | 146 kts | 12° |
| 2026-04-24 11:11 | 32.68281 | 35.06301 | 1995 ft | 146 kts | 14° |
| 2026-04-24 11:12 | 32.69269 | 35.06665 | 1997 ft | 149 kts | 12° |
| 2026-04-24 11:12 | 32.70246 | 35.07021 | 2006 ft | 146 kts | 12° |
| 2026-04-24 11:12 | 32.71255 | 35.07389 | 1894 ft | 157 kts | 12° |
| 2026-04-24 11:12 | 32.72305 | 35.07760 | 1696 ft | 162 kts | 7° |
| 2026-04-24 11:13 | 32.73257 | 35.07708 | 1498 ft | 110 kts | 345° |
| 2026-04-24 11:13 | 32.73886 | 35.07476 | 1358 ft | 84 kts | 335° |
| 2026-04-24 11:13 | 32.74413 | 35.07243 | 1250 ft | 78 kts | 335° |
| 2026-04-24 11:13 | 32.74928 | 35.07018 | 1154 ft | 79 kts | 338° |
| 2026-04-24 11:14 | 32.75443 | 35.06797 | 1063 ft | 78 kts | 338° |
| 2026-04-24 11:14 | 32.75949 | 35.06582 | 961 ft | 76 kts | 338° |
| 2026-04-24 11:14 | 32.76430 | 35.06369 | 845 ft | 72 kts | 339° |
| 2026-04-24 11:14 | 32.76911 | 35.06158 | 884 ft | 82 kts | 339° |
| 2026-04-24 11:15 | 32.77408 | 35.05941 | 774 ft | 72 kts | 339° |
| 2026-04-24 11:15 | 32.77880 | 35.05708 | 560 ft | 73 kts | 339° |
| 2026-04-24 11:15 | 32.78313 | 35.05482 | 524 ft | 59 kts | 340° |
| 2026-04-24 11:15 | 32.78724 | 35.05368 | 621 ft | 69 kts | 338° |
| 2026-04-24 11:16 | 32.79269 | 35.05124 | 481 ft | 89 kts | 336° |
| 2026-04-24 11:16 | 32.79815 | 35.04863 | 346 ft | 82 kts | 342° |
| 2026-04-24 11:16 | 32.80355 | 35.04658 | 107 ft | 77 kts | 336° |
| 2026-04-24 11:16 | 32.80779 | 35.04471 | 21 ft | 51 kts | 338° |
| 2026-04-24 11:17 | 32.81033 | 35.04356 | 24 ft | 30 kts | 342° |
| 2026-04-24 11:17 | 32.81159 | 35.04259 | 25 ft | 16 kts | 265° |
| 2026-04-24 11:17 | 32.81154 | 35.04233 | 26 ft | 3 kts | 263° |
| 2026-04-24 11:17 | 32.81156 | 35.04217 | 26 ft | 6 kts | 297° |
| 2026-04-24 11:18 | 32.81235 | 35.04171 | 27 ft | 19 kts | 346° |
| 2026-04-24 11:18 | 32.81277 | 35.04165 | 27 ft | 0 kts | 353° |
| 2026-04-24 11:18 | 32.81286 | 35.04164 | 27 ft | 8 kts | 0° |
| 2026-04-24 11:18 | 32.81333 | 35.04158 | 27 ft | 5 kts | 268° |
| 2026-04-24 11:19 | 32.81333 | 35.04154 | 27 ft | 0 kts | 253° |